Time;durP1;ratioP1;P1;durP2;ratioP2;P2;SDS_P1;SDS_P2;PMS_P1;PMS_P2;Temp;Humidity;BMP_temperature;BMP_pressure;BME280_temperature;BME280_humidity;BME280_pressure;Samples;Min_cycle;Max_cycle;Signal;HPM_P1;HPM_P2
2023/12/12 00:00:45;;;;;;;90.63;34.83;;;;;;;-144.30;100.00;86818.09;5113289;28;20204;-61
2023/12/12 00:03:12;;;;;;;85.43;34.37;;;;;;;-144.30;100.00;86808.16;5113558;28;20289;-61
2023/12/12 00:05:39;;;;;;;94.70;37.47;;;;;;;-144.30;100.00;86812.13;5113191;28;20309;-62
2023/12/12 00:08:06;;;;;;;91.37;38.23;;;;;;;-144.30;100.00;86843.97;5113052;28;20195;-53
2023/12/12 00:10:33;;;;;;;90.20;36.23;;;;;;;-144.30;100.00;86820.09;5112879;28;20201;-50
2023/12/12 00:12:59;;;;;;;93.43;38.97;;;;;;;-144.30;100.00;86788.28;5113005;28;20279;-52
2023/12/12 00:15:26;;;;;;;90.20;38.10;;;;;;;-144.30;100.00;86788.28;5113190;28;20777;-51
2023/12/12 00:17:55;;;;;;;90.67;38.00;;;;;;;-144.30;100.00;86830.03;5112864;28;20230;-63
2023/12/12 00:20:22;;;;;;;92.70;39.07;;;;;;;-144.30;100.00;86804.19;5113054;28;20290;-61
2023/12/12 00:22:49;;;;;;;101.50;37.90;;;;;;;-144.30;100.00;86780.31;5112924;28;20321;-61
2023/12/12 00:25:16;;;;;;;101.83;40.50;;;;;;;-144.30;100.00;86796.22;5112772;28;20195;-61
2023/12/12 00:27:42;;;;;;;108.30;40.30;;;;;;;-144.30;100.00;86808.16;5113084;28;20285;-51
2023/12/12 00:30:10;;;;;;;104.17;38.63;;;;;;;-144.30;100.00;86804.19;5111340;28;20229;-61
2023/12/12 00:32:37;;;;;;;105.53;39.13;;;;;;;-144.30;100.00;86796.22;5112751;28;20676;-52
2023/12/12 00:35:07;;;;;;;99.20;38.17;;;;;;;-144.30;100.00;86784.28;5112462;28;20218;-52
2023/12/12 00:37:34;;;;;;;95.93;36.80;;;;;;;-144.30;100.00;86796.22;5112497;28;20201;-52
2023/12/12 00:40:01;;;;;;;90.13;37.87;;;;;;;-144.30;100.00;86770.38;5112592;28;20635;-61
2023/12/12 00:42:28;;;;;;;95.17;39.07;;;;;;;-144.30;100.00;86766.41;5071907;28;20211;-53
2023/12/12 00:44:55;;;;;;;97.70;38.67;;;;;;;-144.30;100.00;86808.16;5071978;28;20325;-62
2023/12/12 00:47:22;;;;;;;90.40;37.57;;;;;;;-144.30;100.00;86784.28;5072073;28;20196;-61
2023/12/12 00:49:49;;;;;;;92.13;36.77;;;;;;;-144.30;100.00;86800.19;5071608;28;20209;-61
2023/12/12 00:52:17;;;;;;;96.73;38.07;;;;;;;-144.30;100.00;86812.13;5071736;28;20209;-53
2023/12/12 00:54:44;;;;;;;85.97;35.87;;;;;;;-144.30;100.00;86808.16;5071270;28;20220;-52
2023/12/12 00:57:11;;;;;;;98.77;37.10;;;;;;;-144.30;100.00;86792.25;5071917;28;20676;-62
2023/12/12 00:59:38;;;;;;;92.23;36.40;;;;;;;-144.30;100.00;86806.16;5071469;28;20199;-63
2023/12/12 01:02:05;;;;;;;96.47;35.73;;;;;;;-144.30;100.00;86822.09;5071829;28;20188;-62
2023/12/12 01:04:34;;;;;;;100.17;36.93;;;;;;;-144.30;100.00;86808.16;5071540;28;20287;-62
2023/12/12 01:07:01;;;;;;;94.50;36.80;;;;;;;-144.30;100.00;86826.06;5071440;28;20204;-52
2023/12/12 01:09:29;;;;;;;90.80;36.83;;;;;;;-144.30;100.00;86780.31;5071295;28;20203;-61
2023/12/12 01:11:56;;;;;;;94.20;36.63;;;;;;;-144.30;100.00;86792.25;5071620;28;20290;-61
2023/12/12 01:14:23;;;;;;;102.43;36.40;;;;;;;-144.30;100.00;86812.13;5071509;28;20294;-62
2023/12/12 01:16:50;;;;;;;87.33;33.83;;;;;;;-144.30;100.00;86800.19;5070861;28;20210;-62
2023/12/12 01:19:16;;;;;;;90.20;35.57;;;;;;;-144.30;100.00;86760.44;5070780;28;20195;-62
2023/12/12 01:21:43;;;;;;;84.80;33.63;;;;;;;-144.30;100.00;86828.03;5070505;28;20197;-62
2023/12/12 01:24:10;;;;;;;86.40;35.53;;;;;;;-144.30;100.00;86804.19;5070882;28;20196;-62
2023/12/12 01:26:39;;;;;;;98.73;34.90;;;;;;;-144.30;100.00;86808.16;5070493;28;20198;-61
2023/12/12 01:29:05;;;;;;;82.77;33.77;;;;;;;-144.30;100.00;86796.22;5071049;28;20192;-61
2023/12/12 01:31:32;;;;;;;78.97;31.87;;;;;;;-144.30;100.00;86796.22;5071005;28;20751;-62
2023/12/12 01:33:59;;;;;;;82.80;33.77;;;;;;;-144.30;100.00;86780.31;5070876;28;20196;-52
2023/12/12 01:36:26;;;;;;;81.53;32.40;;;;;;;-144.30;100.00;86800.19;5070927;28;20600;-60
2023/12/12 01:38:53;;;;;;;77.07;32.20;;;;;;;-144.30;100.00;86824.06;5070786;28;20196;-60
2023/12/12 01:41:20;;;;;;;69.00;29.77;;;;;;;-144.30;100.00;86802.19;5091853;28;20234;-53
2023/12/12 01:43:48;;;;;;;80.10;32.23;;;;;;;-144.30;100.00;86841.97;5111252;28;20195;-62
2023/12/12 01:46:19;;;;;;;71.90;32.10;;;;;;;-144.30;100.00;86768.38;5111239;28;20285;-62
2023/12/12 01:48:46;;;;;;;80.53;32.17;;;;;;;-144.30;100.00;86832.03;5111001;28;20281;-62
2023/12/12 01:51:14;;;;;;;80.47;33.67;;;;;;;-144.30;100.00;86802.19;5111220;28;20197;-62
2023/12/12 01:53:45;;;;;;;78.90;32.77;;;;;;;-144.30;100.00;86780.31;5111178;28;20205;-62
2023/12/12 01:56:14;;;;;;;67.90;31.30;;;;;;;-144.30;100.00;86788.28;5111178;28;20222;-62
2023/12/12 01:58:43;;;;;;;83.57;32.67;;;;;;;-144.30;100.00;86832.03;5110850;28;20194;-60
2023/12/12 02:01:12;;;;;;;78.67;32.93;;;;;;;-144.30;100.00;86786.28;5111009;28;20562;-51
2023/12/12 02:03:41;;;;;;;73.23;32.00;;;;;;;-144.30;100.00;86816.13;5111320;28;20638;-62
2023/12/12 02:06:10;;;;;;;81.93;33.87;;;;;;;-144.30;100.00;86772.34;5110855;28;20201;-52
2023/12/12 02:08:39;;;;;;;77.97;33.17;;;;;;;-144.30;100.00;86812.13;5110983;28;20198;-62
2023/12/12 02:11:06;;;;;;;68.60;31.87;;;;;;;-144.30;100.00;86812.13;5111005;28;20191;-62
2023/12/12 02:13:33;;;;;;;76.60;33.90;;;;;;;-144.30;100.00;86808.16;5110768;28;20197;-61
2023/12/12 02:16:00;;;;;;;84.97;34.03;;;;;;;-144.30;100.00;86770.38;5110730;28;20710;-61
2023/12/12 02:18:28;;;;;;;75.53;31.07;;;;;;;-144.30;100.00;86796.22;5110911;28;20196;-62
2023/12/12 02:20:56;;;;;;;76.10;32.53;;;;;;;-144.30;100.00;86826.06;5110605;28;20209;-61
2023/12/12 02:23:24;;;;;;;72.50;31.47;;;;;;;-144.30;100.00;86808.16;5110719;28;20229;-61
2023/12/12 02:25:51;;;;;;;66.23;32.27;;;;;;;-144.30;100.00;86810.16;5110030;28;20620;-61
2023/12/12 02:28:19;;;;;;;72.60;31.53;;;;;;;-144.30;100.00;86804.19;5110662;28;20198;-52
2023/12/12 02:30:46;;;;;;;76.43;31.90;;;;;;;-144.30;100.00;86812.13;5110339;28;20199;-52
2023/12/12 02:33:13;;;;;;;82.17;32.80;;;;;;;-144.30;100.00;86822.09;5110436;28;20198;-52
2023/12/12 02:35:40;;;;;;;80.23;30.53;;;;;;;-144.30;100.00;86826.06;5110303;28;20273;-52
2023/12/12 02:38:07;;;;;;;72.63;28.73;;;;;;;-144.30;100.00;86796.22;5110731;28;20772;-61
2023/12/12 02:40:35;;;;;;;69.77;26.77;;;;;;;-144.30;100.00;86853.91;5110132;28;20332;-53
2023/12/12 02:43:02;;;;;;;81.20;31.33;;;;;;;-144.30;100.00;86867.81;5110139;28;20285;-53
2023/12/12 02:45:29;;;;;;;77.53;29.33;;;;;;;-144.30;100.00;86839.97;5110105;28;20329;-52
2023/12/12 02:47:56;;;;;;;65.90;27.57;;;;;;;-144.30;100.00;86816.13;5110180;28;20190;-52
2023/12/12 02:50:23;;;;;;;74.77;28.90;;;;;;;-144.30;100.00;86834.00;5110416;28;20198;-52
2023/12/12 02:52:50;;;;;;;75.07;29.67;;;;;;;-144.30;100.00;86832.03;5109553;28;20586;-50
2023/12/12 02:55:16;;;;;;;68.13;28.00;;;;;;;-144.30;100.00;86867.81;5110103;28;20228;-61
2023/12/12 02:57:45;;;;;;;71.43;28.43;;;;;;;-144.30;100.00;86859.88;5109981;28;20588;-61
2023/12/12 03:00:12;;;;;;;74.70;31.60;;;;;;;-144.30;100.00;86812.13;5110156;28;20293;-61
2023/12/12 03:02:39;;;;;;;66.20;28.57;;;;;;;-144.30;100.00;86841.97;5109943;28;20288;-53
2023/12/12 03:05:07;;;;;;;69.73;29.10;;;;;;;-144.30;100.00;86863.84;5110107;28;20234;-62
2023/12/12 03:07:33;;;;;;;73.80;28.50;;;;;;;-144.30;100.00;86893.69;5110080;28;20293;-61
2023/12/12 03:10:00;;;;;;;70.23;28.90;;;;;;;-144.30;100.00;86830.03;5110655;28;20197;-52
2023/12/12 03:12:27;;;;;;;73.47;29.10;;;;;;;-144.30;100.00;86853.91;5110068;28;20197;-62
2023/12/12 03:14:56;;;;;;;68.03;29.50;;;;;;;-144.30;100.00;86814.13;5109986;28;20200;-61
2023/12/12 03:17:22;;;;;;;73.87;30.33;;;;;;;-144.30;100.00;86857.88;5109856;28;20260;-51
2023/12/12 03:19:51;;;;;;;70.37;28.13;;;;;;;-144.30;100.00;86853.91;5109940;28;20596;-53
2023/12/12 03:22:18;;;;;;;67.30;29.43;;;;;;;-144.30;100.00;86845.94;5109965;28;20193;-61
2023/12/12 03:24:45;;;;;;;80.57;30.87;;;;;;;-144.30;100.00;86839.97;5109700;28;20201;-60
2023/12/12 03:27:11;;;;;;;69.10;29.50;;;;;;;-144.30;100.00;86816.13;5109673;28;20295;-61
2023/12/12 03:29:39;;;;;;;68.13;29.40;;;;;;;-144.30;100.00;86843.97;5109744;28;20208;-52
2023/12/12 03:32:07;;;;;;;72.67;30.60;;;;;;;-144.30;100.00;86806.16;5110171;28;20643;-54
2023/12/12 03:34:34;;;;;;;72.87;30.57;;;;;;;-144.30;100.00;86855.88;5109910;28;20193;-51
2023/12/12 03:37:01;;;;;;;66.87;28.00;;;;;;;-144.30;100.00;86834.00;5109760;28;20775;-51
2023/12/12 03:39:28;;;;;;;65.00;29.30;;;;;;;-144.30;100.00;86832.03;5109685;28;20204;-53
2023/12/12 03:41:55;;;;;;;68.17;29.67;;;;;;;-144.30;100.00;86857.88;5109462;28;20273;-51
2023/12/12 03:44:22;;;;;;;64.77;30.00;;;;;;;-144.30;100.00;86820.09;5109938;28;20582;-53
2023/12/12 03:46:49;;;;;;;71.33;30.50;;;;;;;-144.30;100.00;86816.13;5109480;28;20201;-60
2023/12/12 03:49:17;;;;;;;70.43;31.13;;;;;;;-144.30;100.00;86843.97;5109714;28;20201;-54
2023/12/12 03:51:44;;;;;;;79.00;32.47;;;;;;;-144.30;100.00;86792.25;5109504;28;20281;-54
2023/12/12 03:54:11;;;;;;;85.63;34.77;;;;;;;-144.30;100.00;86836.00;5109606;28;20197;-60
2023/12/12 03:56:38;;;;;;;93.43;36.17;;;;;;;-144.30;100.00;86806.16;5109658;28;20726;-52
2023/12/12 03:59:05;;;;;;;88.83;36.77;;;;;;;-144.30;100.00;86806.16;5109451;28;20195;-52
2023/12/12 04:01:32;;;;;;;92.60;34.43;;;;;;;-144.30;100.00;86794.25;5109345;28;20206;-59
2023/12/12 04:03:59;;;;;;;90.27;35.73;;;;;;;-144.30;100.00;86836.00;5110191;28;20210;-61
2023/12/12 04:06:27;;;;;;;96.60;37.17;;;;;;;-144.30;100.00;86778.31;5112982;28;20709;-53
2023/12/12 04:08:54;;;;;;;105.23;37.03;;;;;;;-144.30;100.00;86798.22;5113132;28;20599;-62
2023/12/12 04:11:21;;;;;;;95.17;36.77;;;;;;;-144.30;100.00;86808.16;5113288;28;20201;-52
2023/12/12 04:13:48;;;;;;;96.57;36.80;;;;;;;-144.30;100.00;86788.28;5112975;28;20302;-52
2023/12/12 04:16:15;;;;;;;101.77;37.23;;;;;;;-144.30;100.00;86826.06;5113232;28;20655;-61
2023/12/12 04:18:42;;;;;;;93.80;38.07;;;;;;;-144.30;100.00;86812.13;5113222;28;20221;-52
2023/12/12 04:21:09;;;;;;;103.30;38.93;;;;;;;-144.30;100.00;86774.34;5113010;28;20199;-60
2023/12/12 04:23:42;;;;;;;94.80;37.83;;;;;;;-144.30;100.00;86824.06;5113258;28;20667;-62
2023/12/12 04:26:09;;;;;;;91.47;37.40;;;;;;;-144.30;100.00;86814.13;5113217;28;20202;-62
2023/12/12 04:28:36;;;;;;;106.13;38.40;;;;;;;-144.30;100.00;86828.03;5113086;28;20255;-62
2023/12/12 04:31:03;;;;;;;93.37;38.63;;;;;;;-144.30;100.00;86802.19;5112782;28;20195;-62
2023/12/12 04:33:30;;;;;;;94.33;36.77;;;;;;;-144.30;100.00;86838.00;5112744;28;20195;-53
2023/12/12 04:35:57;;;;;;;92.03;36.20;;;;;;;-144.30;100.00;86808.16;5112515;28;20702;-61
2023/12/12 04:38:23;;;;;;;85.20;36.17;;;;;;;-144.30;100.00;86802.19;5113381;28;20574;-52
2023/12/12 04:40:52;;;;;;;88.07;37.10;;;;;;;-144.30;100.00;86810.16;5111306;28;20238;-52
2023/12/12 04:43:19;;;;;;;88.90;36.83;;;;;;;-144.30;100.00;86838.00;5112702;28;20206;-61
2023/12/12 04:45:46;;;;;;;91.27;34.70;;;;;;;-144.30;100.00;86818.09;5112519;28;20195;-62
2023/12/12 04:48:12;;;;;;;80.03;32.80;;;;;;;-144.30;100.00;86804.19;5112056;28;20201;-60
2023/12/12 04:50:39;;;;;;;84.00;36.57;;;;;;;-144.30;100.00;86768.38;5106733;28;20224;-51
2023/12/12 04:53:06;;;;;;;93.43;34.77;;;;;;;-144.30;100.00;86786.28;5111709;28;20653;-51
2023/12/12 04:55:33;;;;;;;80.73;33.23;;;;;;;-144.30;100.00;86780.31;5111769;28;20251;-51
2023/12/12 04:58:02;;;;;;;83.43;32.17;;;;;;;-144.30;100.00;86810.16;5112255;28;20198;-50
2023/12/12 05:00:28;;;;;;;93.90;40.50;;;;;;;-144.30;100.00;86778.31;5112372;27;20688;-59
2023/12/12 05:02:55;;;;;;;116.23;51.07;;;;;;;-144.30;100.00;86796.22;5111910;28;20199;-60
2023/12/12 05:05:22;;;;;;;112.57;50.87;;;;;;;-144.30;100.00;86790.25;5111336;28;20194;-60
2023/12/12 05:07:49;;;;;;;127.30;59.97;;;;;;;-144.30;100.00;86812.13;5111953;28;20194;-61
2023/12/12 05:10:16;;;;;;;104.13;49.00;;;;;;;-144.30;100.00;86792.25;5111809;28;20282;-52
2023/12/12 05:12:43;;;;;;;104.50;40.83;;;;;;;-144.30;100.00;86794.25;5111974;28;20195;-50
2023/12/12 05:15:12;;;;;;;93.27;37.33;;;;;;;-144.30;100.00;86776.34;5111711;28;20194;-52
2023/12/12 05:17:39;;;;;;;89.67;36.63;;;;;;;-144.30;100.00;86770.38;5111174;28;20720;-51
2023/12/12 05:20:09;;;;;;;83.27;33.37;;;;;;;-144.30;100.00;86772.34;5111467;28;20634;-52
2023/12/12 05:22:36;;;;;;;87.23;33.90;;;;;;;-144.30;100.00;86778.31;5111240;28;20202;-53
2023/12/12 05:25:05;;;;;;;87.00;34.90;;;;;;;-144.30;100.00;86788.28;5111571;28;20281;-52
2023/12/12 05:27:32;;;;;;;83.33;35.53;;;;;;;-144.30;100.00;86796.22;5111034;28;20199;-61
2023/12/12 05:29:58;;;;;;;87.43;33.10;;;;;;;-144.30;100.00;86804.19;5110836;28;20198;-61
2023/12/12 05:32:27;;;;;;;86.87;35.57;;;;;;;-144.30;100.00;86782.31;5110331;27;20293;-61
2023/12/12 05:34:54;;;;;;;90.63;33.93;;;;;;;-144.30;100.00;86788.28;5109647;28;20202;-62
2023/12/12 05:37:21;;;;;;;96.63;40.03;;;;;;;-144.30;100.00;86838.00;5111219;28;20217;-52
2023/12/12 05:39:49;;;;;;;98.40;38.63;;;;;;;-144.30;100.00;86798.22;5110864;28;20217;-61
2023/12/12 05:42:16;;;;;;;88.23;37.03;;;;;;;-144.30;100.00;86796.22;5111084;28;20230;-61
2023/12/12 05:44:43;;;;;;;91.97;36.63;;;;;;;-144.30;100.00;86800.19;5111317;28;20223;-53
2023/12/12 05:47:10;;;;;;;95.40;38.23;;;;;;;-144.30;100.00;86794.25;5111588;28;20646;-51
2023/12/12 05:49:38;;;;;;;101.90;39.90;;;;;;;-144.30;100.00;86784.28;5110541;28;20198;-62
2023/12/12 05:52:06;;;;;;;108.07;43.83;;;;;;;-144.30;100.00;86798.22;5111252;28;20202;-62
2023/12/12 05:54:33;;;;;;;107.77;46.10;;;;;;;-144.30;100.00;86756.44;5111209;28;20228;-62
2023/12/12 05:57:00;;;;;;;105.23;46.30;;;;;;;-144.30;100.00;86816.13;5110030;28;20218;-61
2023/12/12 05:59:27;;;;;;;120.00;49.40;;;;;;;-144.30;100.00;86784.28;5111143;28;20198;-62
2023/12/12 06:01:54;;;;;;;106.80;45.27;;;;;;;-144.30;100.00;86828.03;5111056;28;20205;-62
2023/12/12 06:04:21;;;;;;;118.07;47.80;;;;;;;-144.30;100.00;86780.31;5111028;28;20206;-62
2023/12/12 06:06:49;;;;;;;117.93;46.87;;;;;;;-144.30;100.00;86800.19;5111007;28;20197;-52
2023/12/12 06:09:17;;;;;;;121.07;50.23;;;;;;;-144.30;100.00;86794.25;5111199;28;20242;-52
2023/12/12 06:11:44;;;;;;;122.03;50.30;;;;;;;-144.30;100.00;86776.34;5110923;28;20218;-62
2023/12/12 06:14:12;;;;;;;123.23;50.83;;;;;;;-144.30;100.00;86766.41;5111255;28;20195;-62
2023/12/12 06:16:39;;;;;;;118.13;48.17;;;;;;;-144.30;100.00;86796.22;5110694;28;20214;-61
2023/12/12 06:19:05;;;;;;;114.37;47.97;;;;;;;-144.30;100.00;86784.28;5110706;28;20201;-61
2023/12/12 06:21:33;;;;;;;125.07;52.43;;;;;;;-144.30;100.00;86796.22;5110795;28;20289;-53
2023/12/12 06:24:02;;;;;;;117.63;50.23;;;;;;;-144.30;100.00;86772.34;5110415;28;20194;-51
2023/12/12 06:26:29;;;;;;;121.30;48.10;;;;;;;-144.30;100.00;86732.59;5110677;28;20196;-52
2023/12/12 06:28:56;;;;;;;114.47;47.27;;;;;;;-144.30;100.00;86708.72;5110559;28;20264;-52
2023/12/12 06:31:23;;;;;;;112.53;47.53;;;;;;;-144.30;100.00;86736.56;5110776;28;20575;-52
2023/12/12 06:33:51;;;;;;;122.27;49.77;;;;;;;-144.30;100.00;86742.53;5110408;28;20699;-53
2023/12/12 06:36:18;;;;;;;121.07;47.67;;;;;;;-144.30;100.00;86780.31;5110509;28;20222;-59
2023/12/12 06:38:45;;;;;;;110.23;47.50;;;;;;;-144.30;100.00;86694.81;5109820;28;20627;-63
2023/12/12 06:41:13;;;;;;;112.80;47.00;;;;;;;-144.30;100.00;86746.50;5110232;28;20317;-62
2023/12/12 06:43:42;;;;;;;111.27;44.37;;;;;;;-144.30;100.00;86728.59;5110188;28;20201;-53
2023/12/12 06:46:10;;;;;;;107.50;47.23;;;;;;;-144.30;100.00;86718.66;5110505;28;20634;-54
2023/12/12 06:48:37;;;;;;;107.47;45.03;;;;;;;-144.30;100.00;86686.84;5110325;28;20289;-52
2023/12/12 06:51:04;;;;;;;111.67;45.93;;;;;;;-144.30;100.00;86706.72;5110320;28;20759;-53
2023/12/12 06:53:31;;;;;;;105.43;45.03;;;;;;;-144.30;100.00;86724.63;5110612;27;20198;-53
2023/12/12 06:55:58;;;;;;;109.80;46.63;;;;;;;-144.30;100.00;86716.69;5110251;28;20738;-53
2023/12/12 06:58:26;;;;;;;102.37;43.23;;;;;;;-144.30;100.00;86736.56;5109762;28;20242;-53
2023/12/12 07:00:53;;;;;;;104.13;43.33;;;;;;;-144.30;100.00;86744.53;5109864;28;20227;-52
2023/12/12 07:03:21;;;;;;;115.97;46.60;;;;;;;-144.30;100.00;86744.53;5110691;28;20649;-52
2023/12/12 07:05:50;;;;;;;105.70;45.07;;;;;;;-144.30;100.00;86670.94;5110027;28;20194;-52
2023/12/12 07:08:18;;;;;;;115.40;44.40;;;;;;;-144.30;100.00;86756.44;5110170;28;20202;-53
2023/12/12 07:10:45;;;;;;;114.83;45.00;;;;;;;-144.30;100.00;86700.78;5110079;28;20227;-52
2023/12/12 07:13:12;;;;;;;110.33;42.53;;;;;;;-144.30;100.00;86716.69;5110156;28;20237;-52
2023/12/12 07:15:40;;;;;;;110.93;41.73;;;;;;;-144.30;100.00;86758.44;5110057;28;20195;-62
2023/12/12 07:18:10;;;;;;;106.57;40.77;;;;;;;-144.30;100.00;86732.59;5109369;28;20220;-62
2023/12/12 07:20:37;;;;;;;84.90;36.40;;;;;;;-144.30;100.00;86736.56;5110423;28;20199;-53
2023/12/12 07:23:04;;;;;;;92.37;36.40;;;;;;;-144.30;100.00;86780.31;5109695;28;20198;-62
2023/12/12 07:25:32;;;;;;;97.37;36.93;;;;;;;-144.30;100.00;86760.44;5109924;28;20194;-62
2023/12/12 07:27:59;;;;;;;88.33;34.70;;;;;;;-144.30;100.00;86756.44;5109767;28;20232;-62
2023/12/12 07:30:27;;;;;;;87.10;34.67;;;;;;;-144.30;100.00;86780.31;5109923;28;20318;-54
2023/12/12 07:32:55;;;;;;;89.40;32.47;;;;;;;-144.30;100.00;86746.50;5109654;28;20195;-53
2023/12/12 07:35:22;;;;;;;92.30;33.50;;;;;;;-144.30;100.00;86776.34;5110237;28;20590;-55
2023/12/12 07:37:49;;;;;;;87.60;33.07;;;;;;;-144.30;100.00;86784.28;5109476;28;20245;-62
2023/12/12 07:40:17;;;;;;;80.77;32.60;;;;;;;-144.30;100.00;86790.25;5112714;28;20190;-53
2023/12/12 07:42:45;;;;;;;81.53;32.30;;;;;;;-144.30;100.00;86788.28;5112566;28;20690;-62
2023/12/12 07:45:12;;;;;;;79.40;30.73;;;;;;;-144.30;100.00;86722.66;5113718;28;20234;-53
2023/12/12 07:47:39;;;;;;;91.33;33.30;;;;;;;-144.30;100.00;86794.25;5113758;28;20282;-62
2023/12/12 07:50:09;;;;;;;85.10;33.43;;;;;;;-144.30;100.00;86792.25;5098329;28;20205;-62
2023/12/12 07:52:36;;;;;;;81.77;32.73;;;;;;;-144.30;100.00;86800.19;5093260;28;20195;-56
2023/12/12 07:55:03;;;;;;;83.23;33.17;;;;;;;-144.30;100.00;86746.50;5093133;28;20742;-54
2023/12/12 07:57:30;;;;;;;91.43;34.63;;;;;;;-144.30;100.00;86776.34;5092773;28;20219;-53
2023/12/12 07:59:57;;;;;;;98.70;34.27;;;;;;;-144.30;100.00;86746.50;5092812;28;20205;-62
2023/12/12 08:02:24;;;;;;;96.90;36.73;;;;;;;-144.30;100.00;86780.31;5093124;28;20242;-62
2023/12/12 08:04:51;;;;;;;94.93;34.53;;;;;;;-144.30;100.00;86786.28;5093018;28;20192;-61
2023/12/12 08:07:20;;;;;;;85.97;35.27;;;;;;;-144.30;100.00;86796.22;5093102;28;20562;-62
2023/12/12 08:09:47;;;;;;;100.10;37.80;;;;;;;-144.30;100.00;86754.47;5092810;28;20252;-62
2023/12/12 08:12:14;;;;;;;100.50;38.43;;;;;;;-144.30;100.00;86792.25;5092964;28;20586;-62
2023/12/12 08:14:41;;;;;;;101.93;38.93;;;;;;;-144.30;100.00;86714.69;5092854;28;20726;-61
2023/12/12 08:17:08;;;;;;;102.17;39.40;;;;;;;-144.30;100.00;86800.19;5092554;28;20221;-52
2023/12/12 08:19:35;;;;;;;96.27;36.83;;;;;;;-144.30;100.00;86786.28;5092686;28;20199;-53
2023/12/12 08:22:02;;;;;;;99.67;37.30;;;;;;;-144.30;100.00;86768.38;5092576;28;20191;-52
2023/12/12 08:24:31;;;;;;;102.87;38.43;;;;;;;-144.30;100.00;86746.50;5092773;28;20195;-62
2023/12/12 08:26:58;;;;;;;107.53;40.03;;;;;;;-144.30;100.00;86732.59;5092483;28;20209;-63
2023/12/12 08:29:25;;;;;;;112.23;43.03;;;;;;;-144.30;100.00;86724.63;5092726;28;20199;-52
2023/12/12 08:31:52;;;;;;;125.77;48.20;;;;;;;-144.30;100.00;86728.59;5092718;28;20199;-53
2023/12/12 08:34:19;;;;;;;121.27;44.77;;;;;;;-144.30;100.00;86770.38;5092705;28;20670;-53
2023/12/12 08:36:46;;;;;;;112.23;41.03;;;;;;;-144.30;100.00;86716.69;5092303;28;20195;-53
2023/12/12 08:39:14;;;;;;;117.73;43.57;;;;;;;-144.30;100.00;86760.44;5092395;28;20288;-62
2023/12/12 08:41:42;;;;;;;129.00;44.80;;;;;;;-144.30;100.00;86722.66;5092175;28;20250;-61
2023/12/12 08:44:09;;;;;;;132.40;48.70;;;;;;;-144.30;100.00;86776.34;5092655;28;20202;-62
2023/12/12 08:46:36;;;;;;;117.17;42.77;;;;;;;-144.30;100.00;86780.31;5092445;28;20285;-62
2023/12/12 08:49:03;;;;;;;106.37;40.57;;;;;;;-144.30;100.00;86740.53;5092234;28;20292;-63
2023/12/12 08:51:30;;;;;;;93.40;39.07;;;;;;;-144.30;100.00;86710.72;5091082;28;20203;-62
2023/12/12 08:53:59;;;;;;;109.03;36.97;;;;;;;-144.30;100.00;86726.63;5092041;28;20210;-53
2023/12/12 08:56:26;;;;;;;101.93;39.60;;;;;;;-144.30;100.00;86720.66;5092238;28;20245;-62
2023/12/12 08:58:55;;;;;;;117.70;40.70;;;;;;;-144.30;100.00;86760.44;5091976;28;20597;-62
2023/12/12 09:01:22;;;;;;;103.20;37.73;;;;;;;-144.30;100.00;86690.81;5092195;28;20282;-62
2023/12/12 09:03:49;;;;;;;111.93;40.57;;;;;;;-144.30;100.00;86752.47;5091749;28;20264;-62
2023/12/12 09:06:16;;;;;;;115.97;39.57;;;;;;;-144.30;100.00;86744.53;5096070;28;20279;-62
2023/12/12 09:08:43;;;;;;;121.13;43.33;;;;;;;-144.30;100.00;86609.28;5111477;28;20274;-62
2023/12/12 09:11:11;;;;;;;129.17;43.83;;;;;;;-144.30;100.00;86740.53;5110397;28;20194;-62
2023/12/12 09:13:38;;;;;;;109.43;43.50;;;;;;;-144.30;100.00;86722.66;5110803;28;20289;-61
2023/12/12 09:16:07;;;;;;;103.87;42.37;;;;;;;-144.30;100.00;86708.72;5106369;28;20234;-60
2023/12/12 09:18:34;;;;;;;104.97;42.13;;;;;;;-144.30;100.00;86700.78;5110019;28;20671;-59
2023/12/12 09:21:01;;;;;;;103.63;40.53;;;;;;;-144.30;100.00;86732.59;5110631;28;20209;-52
2023/12/12 09:23:28;;;;;;;102.73;40.70;;;;;;;-144.30;100.00;86714.69;5111647;28;20205;-59
2023/12/12 09:25:56;;;;;;;105.57;39.93;;;;;;;-144.30;100.00;86724.63;5111682;28;20204;-60
2023/12/12 09:28:22;;;;;;;95.20;36.47;;;;;;;-144.30;100.00;86688.84;5099144;28;20282;-60
2023/12/12 09:30:49;;;;;;;100.53;39.87;;;;;;;-144.30;100.00;86738.56;5110770;28;20205;-52
2023/12/12 09:33:18;;;;;;;107.40;38.77;;;;;;;-144.30;100.00;86714.69;5111443;28;20682;-51
2023/12/12 09:35:45;;;;;;;98.70;39.30;;;;;;;-144.30;100.00;86704.75;5111498;28;20259;-59
2023/12/12 09:38:12;;;;;;;104.00;38.70;;;;;;;-144.30;100.00;86726.63;5111597;28;20463;-59
2023/12/12 09:40:39;;;;;;;99.60;39.63;;;;;;;-144.30;100.00;86655.03;5111730;28;20230;-60
2023/12/12 09:43:10;;;;;;;92.10;39.47;;;;;;;-144.30;100.00;86704.75;5111390;28;20194;-52
2023/12/12 09:45:39;;;;;;;92.77;38.10;;;;;;;-144.30;100.00;86688.84;5111083;28;20658;-60
2023/12/12 09:48:07;;;;;;;98.43;39.33;;;;;;;-144.30;100.00;86672.94;5111129;28;20222;-59
2023/12/12 09:50:37;;;;;;;100.20;38.63;;;;;;;-144.30;100.00;86710.72;5111326;28;20195;-53
2023/12/12 09:53:04;;;;;;;98.67;40.27;;;;;;;-144.30;100.00;86686.84;5111271;28;20233;-60
2023/12/12 09:55:32;;;;;;;99.23;38.30;;;;;;;-144.30;99.95;86662.97;5111651;27;20635;-60
2023/12/12 09:57:59;;;;;;;98.13;40.00;;;;;;;-144.30;99.59;86633.16;5110645;28;20230;-61
2023/12/12 10:00:26;;;;;;;109.77;46.97;;;;;;;-144.30;98.75;86661.00;5111676;28;20563;-52
2023/12/12 10:02:58;;;;;;;93.90;39.20;;;;;;;-144.30;98.07;86633.16;5110818;28;20194;-60
2023/12/12 10:05:27;;;;;;;87.37;38.37;;;;;;;-144.30;97.76;86631.16;5110635;28;20285;-54
2023/12/12 10:07:56;;;;;;;96.40;38.83;;;;;;;-144.30;97.31;86611.28;5110856;28;20198;-54
2023/12/12 10:10:23;;;;;;;85.73;38.23;;;;;;;-144.30;97.71;86581.44;5110521;28;20229;-51
2023/12/12 10:12:51;;;;;;;85.30;37.80;;;;;;;-144.30;98.37;86637.13;5110929;27;20229;-52
2023/12/12 10:15:23;;;;;;;97.90;39.67;;;;;;;-144.30;98.85;86639.13;5110908;28;20195;-59
2023/12/12 10:17:56;;;;;;;92.03;39.50;;;;;;;-144.30;98.59;86816.13;5110983;28;20225;-58
2023/12/12 10:20:26;;;;;;;90.50;40.17;;;;;;;-144.30;98.45;86613.28;5110705;28;20556;-52
2023/12/12 10:22:58;;;;;;;100.43;40.73;;;;;;;-144.30;98.28;86609.28;5110364;28;20194;-52
2023/12/12 10:25:26;;;;;;;100.27;40.70;;;;;;;-144.30;97.94;86625.19;5110974;28;20202;-50
2023/12/12 10:27:53;;;;;;;99.23;41.40;;;;;;;-144.30;98.61;86653.03;5110580;27;20188;-60
2023/12/12 10:30:22;;;;;;;99.93;42.73;;;;;;;-144.30;98.65;86621.22;5110684;28;20255;-59
2023/12/12 10:32:51;;;;;;;102.43;42.23;;;;;;;-144.30;98.85;86617.25;5110724;28;20197;-51
2023/12/12 10:35:18;;;;;;;97.20;40.87;;;;;;;-144.30;99.06;86637.13;5110811;28;20190;-52
2023/12/12 10:37:45;;;;;;;105.13;41.57;;;;;;;-144.30;98.77;86627.19;5110321;28;20219;-51
2023/12/12 10:40:15;;;;;;;92.17;43.03;;;;;;;-144.30;97.95;86585.44;5110435;28;20259;-59
2023/12/12 10:42:42;;;;;;;98.53;43.03;;;;;;;-144.30;97.20;86611.28;5110546;28;20237;-60
2023/12/12 10:45:13;;;;;;;393.30;202.27;;;;;;;-144.30;97.96;86585.44;5110609;28;20190;-60
2023/12/12 10:47:42;;;;;;;136.20;55.40;;;;;;;-144.30;96.99;86569.50;5110488;28;20195;-53
2023/12/12 10:50:13;;;;;;;103.23;44.53;;;;;;;-144.30;97.11;86971.25;5110492;28;20194;-60
2023/12/12 10:52:41;;;;;;;92.73;42.23;;;;;;;-144.30;97.24;86605.31;5110288;28;20198;-60